History Data

Date (GMT-7:00) CPM ACPM uSv/h Latitude Longitude Altitude CO CO2 TVOC HCHO Air Pressure Temperature Humidity Type
2025-11-13 19:37:01 18 17.10 0.090000 41.649648 41.62752893 0 0 0 0 0 0 0 0 STD5.60
2025-11-13 19:31:59 16 17.80 0.080000 41.649648 41.62752893 0 0 0 0 0 0 0 0 STD5.60
2025-11-13 19:26:58 17 19.40 0.085000 41.649648 41.62752893 0 0 0 0 0 0 0 0 STD5.60
2025-11-13 19:21:54 15 18.90 0.075000 41.649648 41.62752893 0 0 0 0 0 0 0 0 STD5.60
2025-11-13 19:16:52 22 19.00 0.110000 41.649648 41.62752893 0 0 0 0 0 0 0 0 STD5.60
2025-11-13 19:11:50 18 16.20 0.090000 41.649648 41.62752893 0 0 0 0 0 0 0 0 STD5.60
2025-11-13 19:06:48 16 16.30 0.080000 41.649648 41.62752893 0 0 0 0 0 0 0 0 STD5.60
2025-11-13 19:01:46 10 18.10 0.050000 41.649648 41.62752893 0 0 0 0 0 0 0 0 STD5.60
2025-11-13 18:56:44 24 17.00 0.120000 41.649648 41.62752893 0 0 0 0 0 0 0 0 STD5.60
2025-11-13 18:51:42 14 17.90 0.070000 41.649648 41.62752893 0 0 0 0 0 0 0 0 STD5.60
2025-11-13 18:46:39 23 18.30 0.115000 41.649648 41.62752893 0 0 0 0 0 0 0 0 STD5.60
2025-11-13 18:41:36 18 17.90 0.090000 41.649648 41.62752893 0 0 0 0 0 0 0 0 STD5.60
2025-11-13 18:36:34 24 20.30 0.120000 41.649648 41.62752893 0 0 0 0 0 0 0 0 STD5.60
2025-11-13 18:31:32 17 20.10 0.085000 41.649648 41.62752893 0 0 0 0 0 0 0 0 STD5.60
2025-11-13 18:26:30 18 18.50 0.090000 41.649648 41.62752893 0 0 0 0 0 0 0 0 STD5.60
2025-11-13 18:21:27 8 17.60 0.040000 41.649648 41.62752893 0 0 0 0 0 0 0 0 STD5.60
2025-11-13 18:16:26 16 19.30 0.080000 41.649648 41.62752893 0 0 0 0 0 0 0 0 STD5.60
2025-11-13 18:11:26 29 19.30 0.145000 41.649648 41.62752893 0 0 0 0 0 0 0 0 STD5.60
2025-11-13 18:06:24 18 17.40 0.090000 41.649648 41.62752893 0 0 0 0 0 0 0 0 STD5.60
2025-11-13 18:01:20 15 18.40 0.075000 41.649648 41.62752893 0 0 0 0 0 0 0 0 STD5.60
2025-11-13 17:56:17 14 18.30 0.070000 41.649648 41.62752893 0 0 0 0 0 0 0 0 STD5.60
2025-11-13 17:51:15 17 16.70 0.085000 41.649648 41.62752893 0 0 0 0 0 0 0 0 STD5.60
2025-11-13 17:46:11 15 16.20 0.075000 41.649648 41.62752893 0 0 0 0 0 0 0 0 STD5.60
2025-11-13 17:41:12 18 18.20 0.090000 41.649648 41.62752893 0 0 0 0 0 0 0 0 STD5.60
2025-11-13 17:36:07 21 18.40 0.105000 41.649648 41.62752893 0 0 0 0 0 0 0 0 STD5.60
2025-11-13 17:31:05 16 16.40 0.080000 41.649648 41.62752893 0 0 0 0 0 0 0 0 STD5.60
2025-11-13 17:26:03 13 17.10 0.065000 41.649648 41.62752893 0 0 0 0 0 0 0 0 STD5.60
2025-11-13 17:21:01 15 17.60 0.075000 41.649648 41.62752893 0 0 0 0 0 0 0 0 STD5.60
2025-11-13 17:15:59 13 16.90 0.065000 41.649648 41.62752893 0 0 0 0 0 0 0 0 STD5.60
2025-11-13 17:10:57 17 18.40 0.085000 41.649648 41.62752893 0 0 0 0 0 0 0 0 STD5.60
2025-11-13 17:05:58 21 19.40 0.105000 41.649648 41.62752893 0 0 0 0 0 0 0 0 STD5.60
2025-11-13 17:00:52 21 18.90 0.105000 41.649648 41.62752893 0 0 0 0 0 0 0 0 STD5.60
2025-11-13 16:55:51 18 17.90 0.090000 41.649648 41.62752893 0 0 0 0 0 0 0 0 STD5.60
2025-11-13 16:50:48 15 16.10 0.075000 41.649648 41.62752893 0 0 0 0 0 0 0 0 STD5.60
2025-11-13 16:45:45 22 17.20 0.110000 41.649648 41.62752893 0 0 0 0 0 0 0 0 STD5.60
2025-11-13 16:40:42 23 18.60 0.115000 41.649648 41.62752893 0 0 0 0 0 0 0 0 STD5.60
2025-11-13 16:35:40 19 17.20 0.095000 41.649648 41.62752893 0 0 0 0 0 0 0 0 STD5.60
2025-11-13 16:30:38 15 16.00 0.075000 41.649648 41.62752893 0 0 0 0 0 0 0 0 STD5.60
2025-11-13 16:25:36 16 17.00 0.080000 41.649648 41.62752893 0 0 0 0 0 0 0 0 STD5.60
2025-11-13 16:20:34 14 17.60 0.070000 41.649648 41.62752893 0 0 0 0 0 0 0 0 STD5.60
2025-11-13 16:15:33 17 17.20 0.085000 41.649648 41.62752893 0 0 0 0 0 0 0 0 STD5.60
2025-11-13 16:10:29 16 17.50 0.080000 41.649648 41.62752893 0 0 0 0 0 0 0 0 STD5.60
2025-11-13 16:05:27 17 16.40 0.085000 41.649648 41.62752893 0 0 0 0 0 0 0 0 STD5.60
2025-11-13 16:00:25 18 16.90 0.090000 41.649648 41.62752893 0 0 0 0 0 0 0 0 STD5.60
2025-11-13 15:55:24 17 16.40 0.085000 41.649648 41.62752893 0 0 0 0 0 0 0 0 STD5.60
2025-11-13 15:50:22 15 15.80 0.075000 41.649648 41.62752893 0 0 0 0 0 0 0 0 STD5.60
2025-11-13 15:45:17 21 16.10 0.105000 41.649648 41.62752893 0 0 0 0 0 0 0 0 STD5.60
2025-11-13 15:40:15 9 16.90 0.045000 41.649648 41.62752893 0 0 0 0 0 0 0 0 STD5.60
2025-11-13 15:35:12 14 17.30 0.070000 41.649648 41.62752893 0 0 0 0 0 0 0 0 STD5.60
2025-11-13 15:30:11 14 16.20 0.070000 41.649648 41.62752893 0 0 0 0 0 0 0 0 STD5.60
2025-11-13 15:25:08 11 18.10 0.055000 41.649648 41.62752893 0 0 0 0 0 0 0 0 STD5.60
2025-11-13 15:20:07 21 17.50 0.105000 41.649648 41.62752893 0 0 0 0 0 0 0 0 STD5.60
2025-11-13 15:15:04 13 15.80 0.065000 41.649648 41.62752893 0 0 0 0 0 0 0 0 STD5.60
2025-11-13 15:10:02 19 16.60 0.095000 41.649648 41.62752893 0 0 0 0 0 0 0 0 STD5.60
2025-11-13 15:05:00 10 16.10 0.050000 41.649648 41.62752893 0 0 0 0 0 0 0 0 STD5.60
2025-11-13 14:59:58 13 16.50 0.065000 41.649648 41.62752893 0 0 0 0 0 0 0 0 STD5.60
2025-11-13 14:54:56 15 17.50 0.075000 41.649648 41.62752893 0 0 0 0 0 0 0 0 STD5.60
2025-11-13 14:49:52 23 19.10 0.115000 41.649648 41.62752893 0 0 0 0 0 0 0 0 STD5.60
2025-11-13 14:44:49 19 21.10 0.095000 41.649648 41.62752893 0 0 0 0 0 0 0 0 STD5.60
2025-11-13 14:39:47 24 19.40 0.120000 41.649648 41.62752893 0 0 0 0 0 0 0 0 STD5.60
2025-11-13 14:34:45 15 18.00 0.075000 41.649648 41.62752893 0 0 0 0 0 0 0 0 STD5.60
2025-11-13 14:29:44 17 17.80 0.085000 41.649648 41.62752893 0 0 0 0 0 0 0 0 STD5.60
2025-11-13 14:24:42 18 17.80 0.090000 41.649648 41.62752893 0 0 0 0 0 0 0 0 STD5.60
2025-11-13 14:19:39 17 17.90 0.085000 41.649648 41.62752893 0 0 0 0 0 0 0 0 STD5.60
2025-11-13 14:14:37 29 17.20 0.145000 41.649648 41.62752893 0 0 0 0 0 0 0 0 STD5.60
2025-11-13 14:09:35 19 16.80 0.095000 41.649648 41.62752893 0 0 0 0 0 0 0 0 STD5.60
2025-11-13 14:04:32 19 18.30 0.095000 41.649648 41.62752893 0 0 0 0 0 0 0 0 STD5.60
2025-11-13 13:59:30 21 19.60 0.105000 41.649648 41.62752893 0 0 0 0 0 0 0 0 STD5.60
2025-11-13 13:54:29 18 9.50 0.090000 41.649648 41.62752893 0 0 0 0 0 0 0 0 STD5.60
2025-11-13 13:49:25 29 18.10 0.145000 41.649648 41.62752893 0 0 0 0 0 0 0 0 STD5.60
2025-11-13 13:44:23 18 17.30 0.090000 41.649648 41.62752893 0 0 0 0 0 0 0 0 STD5.60
2025-11-13 13:39:20 21 19.10 0.105000 41.649648 41.62752893 0 0 0 0 0 0 0 0 STD5.60
2025-11-13 13:34:18 18 19.00 0.090000 41.649648 41.62752893 0 0 0 0 0 0 0 0 STD5.60
2025-11-13 13:29:16 25 18.00 0.125000 41.649648 41.62752893 0 0 0 0 0 0 0 0 STD5.60
2025-11-13 13:24:14 19 17.70 0.095000 41.649648 41.62752893 0 0 0 0 0 0 0 0 STD5.60
2025-11-13 13:19:12 16 18.00 0.080000 41.649648 41.62752893 0 0 0 0 0 0 0 0 STD5.60
2025-11-13 13:14:10 15 18.00 0.075000 41.649648 41.62752893 0 0 0 0 0 0 0 0 STD5.60
2025-11-13 13:09:08 15 19.20 0.075000 41.649648 41.62752893 0 0 0 0 0 0 0 0 STD5.60
2025-11-13 13:04:06 18 19.50 0.090000 41.649648 41.62752893 0 0 0 0 0 0 0 0 STD5.60
2025-11-13 12:59:04 25 15.80 0.125000 41.649648 41.62752893 0 0 0 0 0 0 0 0 STD5.60
2025-11-13 12:54:02 18 17.10 0.090000 41.649648 41.62752893 0 0 0 0 0 0 0 0 STD5.60
2025-11-13 12:48:58 17 18.40 0.085000 41.649648 41.62752893 0 0 0 0 0 0 0 0 STD5.60
2025-11-13 12:43:56 14 19.40 0.070000 41.649648 41.62752893 0 0 0 0 0 0 0 0 STD5.60
2025-11-13 12:38:54 19 22.10 0.095000 41.649648 41.62752893 0 0 0 0 0 0 0 0 STD5.60
2025-11-13 12:33:52 17 19.70 0.085000 41.649648 41.62752893 0 0 0 0 0 0 0 0 STD5.60
2025-11-13 12:28:50 15 16.60 0.075000 41.649648 41.62752893 0 0 0 0 0 0 0 0 STD5.60
2025-11-13 12:23:48 24 16.50 0.120000 41.649648 41.62752893 0 0 0 0 0 0 0 0 STD5.60
2025-11-13 12:18:45 20 17.80 0.100000 41.649648 41.62752893 0 0 0 0 0 0 0 0 STD5.60
2025-11-13 12:13:44 20 18.30 0.100000 41.649648 41.62752893 0 0 0 0 0 0 0 0 STD5.60
2025-11-13 12:08:42 18 17.50 0.090000 41.649648 41.62752893 0 0 0 0 0 0 0 0 STD5.60
2025-11-13 12:03:39 18 18.20 0.090000 41.649648 41.62752893 0 0 0 0 0 0 0 0 STD5.60
2025-11-13 11:58:37 17 18.60 0.085000 41.649648 41.62752893 0 0 0 0 0 0 0 0 STD5.60
2025-11-13 11:53:35 15 18.00 0.075000 41.649648 41.62752893 0 0 0 0 0 0 0 0 STD5.60
2025-11-13 11:48:30 23 15.10 0.115000 41.649648 41.62752893 0 0 0 0 0 0 0 0 STD5.60
2025-11-13 11:43:28 14 16.10 0.070000 41.649648 41.62752893 0 0 0 0 0 0 0 0 STD5.60
2025-11-13 11:38:25 14 18.50 0.070000 41.649648 41.62752893 0 0 0 0 0 0 0 0 STD5.60
2025-11-13 11:33:23 11 17.50 0.055000 41.649648 41.62752893 0 0 0 0 0 0 0 0 STD5.60
2025-11-13 11:28:21 18 17.10 0.090000 41.649648 41.62752893 0 0 0 0 0 0 0 0 STD5.60
2025-11-13 11:23:19 12 16.10 0.060000 41.649648 41.62752893 0 0 0 0 0 0 0 0 STD5.60
2025-11-13 11:18:17 14 17.70 0.070000 41.649648 41.62752893 0 0 0 0 0 0 0 0 STD5.60
2025-11-13 11:13:15 27 18.50 0.135000 41.649648 41.62752893 0 0 0 0 0 0 0 0 STD5.60
2025-11-13 11:08:12 17 18.70 0.085000 41.649648 41.62752893 0 0 0 0 0 0 0 0 STD5.60
2025-11-13 11:03:10 17 18.70 0.085000 41.649648 41.62752893 0 0 0 0 0 0 0 0 STD5.60
2025-11-13 10:58:08 19 17.60 0.095000 41.649648 41.62752893 0 0 0 0 0 0 0 0 STD5.60
2025-11-13 10:53:06 16 16.30 0.080000 41.649648 41.62752893 0 0 0 0 0 0 0 0 STD5.60
2025-11-13 10:48:01 20 17.50 0.100000 41.649648 41.62752893 0 0 0 0 0 0 0 0 STD5.60
2025-11-13 10:42:59 19 17.70 0.095000 41.649648 41.62752893 0 0 0 0 0 0 0 0 STD5.60
2025-11-13 10:37:57 14 15.40 0.070000 41.649648 41.62752893 0 0 0 0 0 0 0 0 STD5.60
2025-11-13 10:32:55 18 17.10 0.090000 41.649648 41.62752893 0 0 0 0 0 0 0 0 STD5.60
2025-11-13 10:27:53 24 19.80 0.120000 41.649648 41.62752893 0 0 0 0 0 0 0 0 STD5.60
2025-11-13 10:22:51 24 19.60 0.120000 41.649648 41.62752893 0 0 0 0 0 0 0 0 STD5.60
2025-11-13 10:17:49 22 17.10 0.110000 41.649648 41.62752893 0 0 0 0 0 0 0 0 STD5.60
2025-11-13 10:12:47 16 16.80 0.080000 41.649648 41.62752893 0 0 0 0 0 0 0 0 STD5.60
2025-11-13 10:07:45 22 16.10 0.110000 41.649648 41.62752893 0 0 0 0 0 0 0 0 STD5.60
2025-11-13 10:02:42 7 14.90 0.035000 41.649648 41.62752893 0 0 0 0 0 0 0 0 STD5.60
2025-11-13 09:57:40 17 16.50 0.085000 41.649648 41.62752893 0 0 0 0 0 0 0 0 STD5.60
2025-11-13 09:52:38 18 16.10 0.090000 41.649648 41.62752893 0 0 0 0 0 0 0 0 STD5.60
2025-11-13 09:47:33 15 16.00 0.075000 41.649648 41.62752893 0 0 0 0 0 0 0 0 STD5.60
2025-11-13 09:42:31 16 17.70 0.080000 41.649648 41.62752893 0 0 0 0 0 0 0 0 STD5.60
2025-11-13 09:37:28 19 18.00 0.095000 41.649648 41.62752893 0 0 0 0 0 0 0 0 STD5.60
2025-11-13 09:32:26 17 17.40 0.085000 41.649648 41.62752893 0 0 0 0 0 0 0 0 STD5.60
2025-11-13 09:27:24 15 17.80 0.075000 41.649648 41.62752893 0 0 0 0 0 0 0 0 STD5.60
2025-11-13 09:22:22 19 18.20 0.095000 41.649648 41.62752893 0 0 0 0 0 0 0 0 STD5.60
2025-11-13 09:17:20 18 17.00 0.090000 41.649648 41.62752893 0 0 0 0 0 0 0 0 STD5.60
2025-11-13 09:12:18 10 16.70 0.050000 41.649648 41.62752893 0 0 0 0 0 0 0 0 STD5.60
2025-11-13 09:07:16 13 17.80 0.065000 41.649648 41.62752893 0 0 0 0 0 0 0 0 STD5.60
2025-11-13 09:02:14 18 18.60 0.090000 41.649648 41.62752893 0 0 0 0 0 0 0 0 STD5.60
2025-11-13 08:57:12 14 18.90 0.070000 41.649648 41.62752893 0 0 0 0 0 0 0 0 STD5.60
2025-11-13 08:52:10 17 19.90 0.085000 41.649648 41.62752893 0 0 0 0 0 0 0 0 STD5.60
2025-11-13 08:47:06 22 18.70 0.110000 41.649648 41.62752893 0 0 0 0 0 0 0 0 STD5.60
2025-11-13 08:42:04 19 17.10 0.095000 41.649648 41.62752893 0 0 0 0 0 0 0 0 STD5.60
2025-11-13 08:37:02 14 17.70 0.070000 41.649648 41.62752893 0 0 0 0 0 0 0 0 STD5.60
2025-11-13 08:32:00 14 17.30 0.070000 41.649648 41.62752893 0 0 0 0 0 0 0 0 STD5.60
2025-11-13 08:26:58 22 17.50 0.110000 41.649648 41.62752893 0 0 0 0 0 0 0 0 STD5.60
2025-11-13 08:21:56 9 17.50 0.045000 41.649648 41.62752893 0 0 0 0 0 0 0 0 STD5.60
2025-11-13 08:16:54 19 17.70 0.095000 41.649648 41.62752893 0 0 0 0 0 0 0 0 STD5.60
2025-11-13 08:11:52 20 18.70 0.100000 41.649648 41.62752893 0 0 0 0 0 0 0 0 STD5.60
2025-11-13 08:06:50 21 18.10 0.105000 41.649648 41.62752893 0 0 0 0 0 0 0 0 STD5.60
2025-11-13 08:01:48 18 16.80 0.090000 41.649648 41.62752893 0 0 0 0 0 0 0 0 STD5.60
2025-11-13 07:56:45 10 17.80 0.050000 41.649648 41.62752893 0 0 0 0 0 0 0 0 STD5.60
2025-11-13 07:51:43 21 18.30 0.105000 41.649648 41.62752893 0 0 0 0 0 0 0 0 STD5.60
2025-11-13 07:46:39 16 17.50 0.080000 41.649648 41.62752893 0 0 0 0 0 0 0 0 STD5.60
2025-11-13 07:41:39 13 18.80 0.065000 41.649648 41.62752893 0 0 0 0 0 0 0 0 STD5.60
2025-11-13 07:36:35 24 17.50 0.120000 41.649648 41.62752893 0 0 0 0 0 0 0 0 STD5.60
2025-11-13 07:31:33 16 16.50 0.080000 41.649648 41.62752893 0 0 0 0 0 0 0 0 STD5.60
2025-11-13 07:26:31 24 16.50 0.120000 41.649648 41.62752893 0 0 0 0 0 0 0 0 STD5.60
2025-11-13 07:21:29 9 16.10 0.045000 41.649648 41.62752893 0 0 0 0 0 0 0 0 STD5.60
2025-11-13 07:16:27 26 18.60 0.130000 41.649648 41.62752893 0 0 0 0 0 0 0 0 STD5.60
2025-11-13 07:11:26 21 19.50 0.105000 41.649648 41.62752893 0 0 0 0 0 0 0 0 STD5.60
2025-11-13 07:06:23 21 18.80 0.105000 41.649648 41.62752893 0 0 0 0 0 0 0 0 STD5.60
2025-11-13 07:01:21 25 17.40 0.125000 41.649648 41.62752893 0 0 0 0 0 0 0 0 STD5.60
2025-11-13 06:56:19 21 16.70 0.105000 41.649648 41.62752893 0 0 0 0 0 0 0 0 STD5.60
2025-11-13 06:51:16 22 17.70 0.110000 41.649648 41.62752893 0 0 0 0 0 0 0 0 STD5.60
2025-11-13 06:46:12 17 19.00 0.085000 41.649648 41.62752893 0 0 0 0 0 0 0 0 STD5.60
2025-11-13 06:41:10 20 19.70 0.100000 41.649648 41.62752893 0 0 0 0 0 0 0 0 STD5.60
2025-11-13 06:36:07 23 20.40 0.115000 41.649648 41.62752893 0 0 0 0 0 0 0 0 STD5.60
2025-11-13 06:31:05 17 18.80 0.085000 41.649648 41.62752893 0 0 0 0 0 0 0 0 STD5.60
2025-11-13 06:26:03 18 17.00 0.090000 41.649648 41.62752893 0 0 0 0 0 0 0 0 STD5.60
2025-11-13 06:21:01 12 18.40 0.060000 41.649648 41.62752893 0 0 0 0 0 0 0 0 STD5.60
2025-11-13 06:15:59 19 17.50 0.095000 41.649648 41.62752893 0 0 0 0 0 0 0 0 STD5.60
2025-11-13 06:10:57 19 15.80 0.095000 41.649648 41.62752893 0 0 0 0 0 0 0 0 STD5.60
2025-11-13 06:05:55 15 18.30 0.075000 41.649648 41.62752893 0 0 0 0 0 0 0 0 STD5.60
2025-11-13 06:00:53 19 18.20 0.095000 41.649648 41.62752893 0 0 0 0 0 0 0 0 STD5.60
2025-11-13 05:55:51 14 17.10 0.070000 41.649648 41.62752893 0 0 0 0 0 0 0 0 STD5.60
2025-11-13 05:50:49 16 16.70 0.080000 41.649648 41.62752893 0 0 0 0 0 0 0 0 STD5.60
2025-11-13 05:45:45 12 15.70 0.060000 41.649648 41.62752893 0 0 0 0 0 0 0 0 STD5.60
2025-11-13 05:40:44 15 18.40 0.075000 41.649648 41.62752893 0 0 0 0 0 0 0 0 STD5.60
2025-11-13 05:35:41 21 20.10 0.105000 41.649648 41.62752893 0 0 0 0 0 0 0 0 STD5.60
2025-11-13 05:30:40 25 17.60 0.125000 41.649648 41.62752893 0 0 0 0 0 0 0 0 STD5.60
2025-11-13 05:25:37 16 16.30 0.080000 41.649648 41.62752893 0 0 0 0 0 0 0 0 STD5.60
2025-11-13 05:20:35 17 18.10 0.085000 41.649648 41.62752893 0 0 0 0 0 0 0 0 STD5.60
2025-11-13 05:15:33 23 18.70 0.115000 41.649648 41.62752893 0 0 0 0 0 0 0 0 STD5.60
2025-11-13 05:10:31 17 18.10 0.085000 41.649648 41.62752893 0 0 0 0 0 0 0 0 STD5.60
2025-11-13 05:05:29 14 18.80 0.070000 41.649648 41.62752893 0 0 0 0 0 0 0 0 STD5.60
2025-11-13 05:00:27 24 18.50 0.120000 41.649648 41.62752893 0 0 0 0 0 0 0 0 STD5.60
2025-11-13 04:55:25 11 18.20 0.055000 41.649648 41.62752893 0 0 0 0 0 0 0 0 STD5.60
2025-11-13 04:50:22 17 17.10 0.085000 41.649648 41.62752893 0 0 0 0 0 0 0 0 STD5.60
2025-11-13 04:45:18 19 16.70 0.095000 41.649648 41.62752893 0 0 0 0 0 0 0 0 STD5.60
2025-11-13 04:40:16 23 18.70 0.115000 41.649648 41.62752893 0 0 0 0 0 0 0 0 STD5.60
2025-11-13 04:35:14 25 17.80 0.125000 41.649648 41.62752893 0 0 0 0 0 0 0 0 STD5.60
2025-11-13 04:30:12 16 16.00 0.080000 41.649648 41.62752893 0 0 0 0 0 0 0 0 STD5.60
2025-11-13 04:25:10 9 16.00 0.045000 41.649648 41.62752893 0 0 0 0 0 0 0 0 STD5.60
2025-11-13 04:20:08 14 17.60 0.070000 41.649648 41.62752893 0 0 0 0 0 0 0 0 STD5.60
2025-11-13 04:15:06 22 19.10 0.110000 41.649648 41.62752893 0 0 0 0 0 0 0 0 STD5.60
2025-11-13 04:10:04 15 18.40 0.075000 41.649648 41.62752893 0 0 0 0 0 0 0 0 STD5.60
2025-11-13 04:05:02 21 17.60 0.105000 41.649648 41.62752893 0 0 0 0 0 0 0 0 STD5.60
2025-11-13 03:59:59 12 17.50 0.060000 41.649648 41.62752893 0 0 0 0 0 0 0 0 STD5.60
2025-11-13 03:54:57 25 16.80 0.125000 41.649648 41.62752893 0 0 0 0 0 0 0 0 STD5.60
2025-11-13 03:49:55 7 16.40 0.035000 41.649648 41.62752893 0 0 0 0 0 0 0 0 STD5.60
2025-11-13 03:44:51 16 18.70 0.080000 41.649648 41.62752893 0 0 0 0 0 0 0 0 STD5.60
2025-11-13 03:39:49 22 18.00 0.110000 41.649648 41.62752893 0 0 0 0 0 0 0 0 STD5.60
2025-11-13 03:34:47 13 16.50 0.065000 41.649648 41.62752893 0 0 0 0 0 0 0 0 STD5.60
2025-11-13 03:29:44 14 18.80 0.070000 41.649648 41.62752893 0 0 0 0 0 0 0 0 STD5.60
2025-11-13 03:24:43 28 17.80 0.140000 41.649648 41.62752893 0 0 0 0 0 0 0 0 STD5.60
2025-11-13 03:19:41 13 17.10 0.065000 41.649648 41.62752893 0 0 0 0 0 0 0 0 STD5.60
2025-11-13 03:14:39 21 18.80 0.105000 41.649648 41.62752893 0 0 0 0 0 0 0 0 STD5.60
2025-11-13 03:09:37 19 17.00 0.095000 41.649648 41.62752893 0 0 0 0 0 0 0 0 STD5.60
2025-11-13 03:04:34 14 15.30 0.070000 41.649648 41.62752893 0 0 0 0 0 0 0 0 STD5.60
2025-11-13 02:59:33 13 13.90 0.065000 41.649648 41.62752893 0 0 0 0 0 0 0 0 STD5.60
2025-11-13 02:54:31 8 13.50 0.040000 41.649648 41.62752893 0 0 0 0 0 0 0 0 STD5.60
2025-11-13 02:49:29 14 15.60 0.070000 41.649648 41.62752893 0 0 0 0 0 0 0 0 STD5.60
2025-11-13 02:44:24 17 17.20 0.085000 41.649648 41.62752893 0 0 0 0 0 0 0 0 STD5.60
2025-11-13 02:39:23 23 17.60 0.115000 41.649648 41.62752893 0 0 0 0 0 0 0 0 STD5.60
2025-11-13 02:34:21 20 17.30 0.100000 41.649648 41.62752893 0 0 0 0 0 0 0 0 STD5.60
2025-11-13 02:29:18 14 17.30 0.070000 41.649648 41.62752893 0 0 0 0 0 0 0 0 STD5.60
2025-11-13 02:24:17 17 16.50 0.085000 41.649648 41.62752893 0 0 0 0 0 0 0 0 STD5.60
2025-11-13 02:19:15 21 15.70 0.105000 41.649648 41.62752893 0 0 0 0 0 0 0 0 STD5.60
2025-11-13 02:14:12 14 19.10 0.070000 41.649648 41.62752893 0 0 0 0 0 0 0 0 STD5.60
2025-11-13 02:09:10 19 21.20 0.095000 41.649648 41.62752893 0 0 0 0 0 0 0 0 STD5.60
2025-11-13 02:04:08 14 18.10 0.070000 41.649648 41.62752893 0 0 0 0 0 0 0 0 STD5.60
2025-11-13 01:59:05 20 17.30 0.100000 41.649648 41.62752893 0 0 0 0 0 0 0 0 STD5.60
2025-11-13 01:54:03 18 19.90 0.090000 41.649648 41.62752893 0 0 0 0 0 0 0 0 STD5.60
2025-11-13 01:49:01 24 20.10 0.120000 41.649648 41.62752893 0 0 0 0 0 0 0 0 STD5.60
2025-11-13 01:43:57 17 19.20 0.085000 41.649648 41.62752893 0 0 0 0 0 0 0 0 STD5.60
2025-11-13 01:38:55 24 18.70 0.120000 41.649648 41.62752893 0 0 0 0 0 0 0 0 STD5.60
2025-11-13 01:33:53 26 18.30 0.130000 41.649648 41.62752893 0 0 0 0 0 0 0 0 STD5.60
2025-11-13 01:28:50 9 17.80 0.045000 41.649648 41.62752893 0 0 0 0 0 0 0 0 STD5.60
2025-11-13 01:23:49 20 16.20 0.100000 41.649648 41.62752893 0 0 0 0 0 0 0 0 STD5.60
2025-11-13 01:18:47 18 16.60 0.090000 41.649648 41.62752893 0 0 0 0 0 0 0 0 STD5.60
2025-11-13 01:13:45 13 17.50 0.065000 41.649648 41.62752893 0 0 0 0 0 0 0 0 STD5.60
2025-11-13 01:08:42 18 17.40 0.090000 41.649648 41.62752893 0 0 0 0 0 0 0 0 STD5.60
2025-11-13 01:03:40 18 18.80 0.090000 41.649648 41.62752893 0 0 0 0 0 0 0 0 STD5.60
2025-11-13 00:58:38 23 18.40 0.115000 41.649648 41.62752893 0 0 0 0 0 0 0 0 STD5.60
2025-11-13 00:53:37 11 16.90 0.055000 41.649648 41.62752893 0 0 0 0 0 0 0 0 STD5.60
2025-11-13 00:48:34 16 16.30 0.080000 41.649648 41.62752893 0 0 0 0 0 0 0 0 STD5.60
2025-11-13 00:43:30 13 16.90 0.065000 41.649648 41.62752893 0 0 0 0 0 0 0 0 STD5.60
2025-11-13 00:38:29 18 17.70 0.090000 41.649648 41.62752893 0 0 0 0 0 0 0 0 STD5.60
2025-11-13 00:33:26 18 19.30 0.090000 41.649648 41.62752893 0 0 0 0 0 0 0 0 STD5.60
2025-11-13 00:28:24 17 18.70 0.085000 41.649648 41.62752893 0 0 0 0 0 0 0 0 STD5.60
2025-11-13 00:23:22 17 18.40 0.085000 41.649648 41.62752893 0 0 0 0 0 0 0 0 STD5.60
2025-11-13 00:18:20 18 19.30 0.090000 41.649648 41.62752893 0 0 0 0 0 0 0 0 STD5.60
2025-11-13 00:13:18 10 17.30 0.050000 41.649648 41.62752893 0 0 0 0 0 0 0 0 STD5.60
2025-11-13 00:08:16 21 16.60 0.105000 41.649648 41.62752893 0 0 0 0 0 0 0 0 STD5.60
2025-11-13 00:03:14 22 18.40 0.110000 41.649648 41.62752893 0 0 0 0 0 0 0 0 STD5.60
2025-11-12 23:58:11 13 19.50 0.065000 41.649648 41.62752893 0 0 0 0 0 0 0 0 STD5.60
2025-11-12 23:53:10 31 18.50 0.155000 41.649648 41.62752893 0 0 0 0 0 0 0 0 STD5.60
2025-11-12 23:48:08 19 17.00 0.095000 41.649648 41.62752893 0 0 0 0 0 0 0 0 STD5.60
2025-11-12 23:43:03 17 18.30 0.085000 41.649648 41.62752893 0 0 0 0 0 0 0 0 STD5.60
2025-11-12 23:38:02 17 17.90 0.085000 41.649648 41.62752893 0 0 0 0 0 0 0 0 STD5.60
2025-11-12 23:33:00 19 17.10 0.095000 41.649648 41.62752893 0 0 0 0 0 0 0 0 STD5.60
2025-11-12 23:27:58 19 17.80 0.095000 41.649648 41.62752893 0 0 0 0 0 0 0 0 STD5.60
2025-11-12 23:22:56 13 19.70 0.065000 41.649648 41.62752893 0 0 0 0 0 0 0 0 STD5.60
2025-11-12 23:17:53 21 20.70 0.105000 41.649648 41.62752893 0 0 0 0 0 0 0 0 STD5.60
2025-11-12 23:12:51 19 19.20 0.095000 41.649648 41.62752893 0 0 0 0 0 0 0 0 STD5.60
2025-11-12 23:07:49 17 18.60 0.085000 41.649648 41.62752893 0 0 0 0 0 0 0 0 STD5.60
2025-11-12 23:02:47 23 17.20 0.115000 41.649648 41.62752893 0 0 0 0 0 0 0 0 STD5.60
2025-11-12 22:57:45 16 16.70 0.080000 41.649648 41.62752893 0 0 0 0 0 0 0 0 STD5.60
2025-11-12 22:52:43 15 17.60 0.075000 41.649648 41.62752893 0 0 0 0 0 0 0 0 STD5.60
2025-11-12 22:47:41 21 19.10 0.105000 41.649648 41.62752893 0 0 0 0 0 0 0 0 STD5.60
2025-11-12 22:42:35 10 17.70 0.050000 41.649648 41.62752893 0 0 0 0 0 0 0 0 STD5.60
2025-11-12 22:37:33 16 15.90 0.080000 41.649648 41.62752893 0 0 0 0 0 0 0 0 STD5.60
2025-11-12 22:32:31 18 17.00 0.090000 41.649648 41.62752893 0 0 0 0 0 0 0 0 STD5.60
2025-11-12 22:27:29 20 16.70 0.100000 41.649648 41.62752893 0 0 0 0 0 0 0 0 STD5.60
2025-11-12 22:22:27 16 17.00 0.080000 41.649648 41.62752893 0 0 0 0 0 0 0 0 STD5.60
2025-11-12 22:17:25 19 18.80 0.095000 41.649648 41.62752893 0 0 0 0 0 0 0 0 STD5.60
2025-11-12 22:12:23 19 17.00 0.095000 41.649648 41.62752893 0 0 0 0 0 0 0 0 STD5.60
2025-11-12 22:07:20 15 16.30 0.075000 41.649648 41.62752893 0 0 0 0 0 0 0 0 STD5.60
2025-11-12 22:02:18 19 17.60 0.095000 41.649648 41.62752893 0 0 0 0 0 0 0 0 STD5.60
2025-11-12 21:57:16 18 17.50 0.090000 41.649648 41.62752893 0 0 0 0 0 0 0 0 STD5.60
2025-11-12 21:52:15 25 15.70 0.125000 41.649648 41.62752893 0 0 0 0 0 0 0 0 STD5.60
2025-11-12 21:47:12 8 16.20 0.040000 41.649648 41.62752893 0 0 0 0 0 0 0 0 STD5.60
2025-11-12 21:42:07 17 17.80 0.085000 41.649648 41.62752893 0 0 0 0 0 0 0 0 STD5.60
2025-11-12 21:37:06 17 16.30 0.085000 41.649648 41.62752893 0 0 0 0 0 0 0 0 STD5.60
2025-11-12 21:32:03 16 17.30 0.080000 41.649648 41.62752893 0 0 0 0 0 0 0 0 STD5.60
2025-11-12 21:27:01 14 17.70 0.070000 41.649648 41.62752893 0 0 0 0 0 0 0 0 STD5.60
2025-11-12 21:21:59 20 17.80 0.100000 41.649648 41.62752893 0 0 0 0 0 0 0 0 STD5.60
2025-11-12 21:16:57 16 16.70 0.080000 41.649648 41.62752893 0 0 0 0 0 0 0 0 STD5.60
2025-11-12 21:11:55 14 15.30 0.070000 41.649648 41.62752893 0 0 0 0 0 0 0 0 STD5.60
2025-11-12 21:06:53 15 16.50 0.075000 41.649648 41.62752893 0 0 0 0 0 0 0 0 STD5.60
2025-11-12 21:01:50 12 17.00 0.060000 41.649648 41.62752893 0 0 0 0 0 0 0 0 STD5.60
2025-11-12 20:56:49 19 17.70 0.095000 41.649648 41.62752893 0 0 0 0 0 0 0 0 STD5.60
2025-11-12 20:51:46 18 17.90 0.090000 41.649648 41.62752893 0 0 0 0 0 0 0 0 STD5.60
2025-11-12 20:46:44 11 17.40 0.055000 41.649648 41.62752893 0 0 0 0 0 0 0 0 STD5.60
2025-11-12 20:41:40 12 18.00 0.060000 41.649648 41.62752893 0 0 0 0 0 0 0 0 STD5.60
2025-11-12 20:36:38 24 18.40 0.120000 41.649648 41.62752893 0 0 0 0 0 0 0 0 STD5.60
2025-11-12 20:31:36 12 16.10 0.060000 41.649648 41.62752893 0 0 0 0 0 0 0 0 STD5.60
2025-11-12 20:26:34 13 14.50 0.065000 41.649648 41.62752893 0 0 0 0 0 0 0 0 STD5.60
2025-11-12 20:21:32 20 17.70 0.100000 41.649648 41.62752893 0 0 0 0 0 0 0 0 STD5.60
2025-11-12 20:16:30 28 19.30 0.140000 41.649648 41.62752893 0 0 0 0 0 0 0 0 STD5.60
2025-11-12 20:11:28 21 18.00 0.105000 41.649648 41.62752893 0 0 0 0 0 0 0 0 STD5.60
2025-11-12 20:06:26 20 18.30 0.100000 41.649648 41.62752893 0 0 0 0 0 0 0 0 STD5.60
2025-11-12 20:01:23 16 18.90 0.080000 41.649648 41.62752893 0 0 0 0 0 0 0 0 STD5.60
2025-11-12 19:56:22 16 19.40 0.080000 41.649648 41.62752893 0 0 0 0 0 0 0 0 STD5.60
2025-11-12 19:51:19 14 19.10 0.070000 41.649648 41.62752893 0 0 0 0 0 0 0 0 STD5.60
2025-11-12 19:46:17 14 17.40 0.070000 41.649648 41.62752893 0 0 0 0 0 0 0 0 STD5.60
2025-11-12 19:41:13 16 15.60 0.080000 41.649648 41.62752893 0 0 0 0 0 0 0 0 STD5.60
2025-11-12 19:36:12 18 16.00 0.090000 41.649648 41.62752893 0 0 0 0 0 0 0 0 STD5.60
2025-11-12 19:31:09 15 16.80 0.075000 41.649648 41.62752893 0 0 0 0 0 0 0 0 STD5.60
2025-11-12 19:26:07 11 16.10 0.055000 41.649648 41.62752893 0 0 0 0 0 0 0 0 STD5.60
2025-11-12 19:21:05 24 16.40 0.120000 41.649648 41.62752893 0 0 0 0 0 0 0 0 STD5.60
2025-11-12 19:16:03 22 16.80 0.110000 41.649648 41.62752893 0 0 0 0 0 0 0 0 STD5.60
2025-11-12 19:11:01 21 17.30 0.105000 41.649648 41.62752893 0 0 0 0 0 0 0 0 STD5.60
2025-11-12 19:05:59 18 17.10 0.090000 41.649648 41.62752893 0 0 0 0 0 0 0 0 STD5.60
2025-11-12 19:00:57 17 16.10 0.085000 41.649648 41.62752893 0 0 0 0 0 0 0 0 STD5.60
2025-11-12 18:55:56 13 18.30 0.065000 41.649648 41.62752893 0 0 0 0 0 0 0 0 STD5.60
2025-11-12 18:50:53 27 18.20 0.135000 41.649648 41.62752893 0 0 0 0 0 0 0 0 STD5.60
2025-11-12 18:45:51 18 15.60 0.090000 41.649648 41.62752893 0 0 0 0 0 0 0 0 STD5.60
2025-11-12 18:40:47 15 17.70 0.075000 41.649648 41.62752893 0 0 0 0 0 0 0 0 STD5.60
2025-11-12 18:35:45 20 19.10 0.100000 41.649648 41.62752893 0 0 0 0 0 0 0 0 STD5.60
2025-11-12 18:30:43 23 18.00 0.115000 41.649648 41.62752893 0 0 0 0 0 0 0 0 STD5.60
Geiger Counter World Map       A real time radiation map.     Copyright 2015 All rights reserved.